Latest Weather Observations for Kuitpo

IDS60801

Issued at 8:21 am CDT Friday 22 January 2021 (issued every 10 minutes, with the page automatically refreshed every 10 minutes)

About weather observations | Map of weather stations | Latest weather observations for SA | Other Formats
Station Details ID: 023887 Name: KUITPO FOREST RESERVE Lat: -35.17 Lon: 138.68 Height: 365.0 m
Data from the previous 72 hours. | See also: Recent months at Kuitpo
Date/Time
CDT
Temp
°C
App
Temp
°C
Dew
Point
°C
Rel
Hum
%
Delta-T
°C
Wind Press
QNH
hPa
Press
MSL
hPa
Rain since
9am
mm
Dir  Spd
km/h
Gust
km/h
Spd
kts
Gust
kts
22/08:00am 20.8 18.1 0.6 26 9.3 N 4 7 2 4 1011.6 1010.2 0.0
22/07:30am 18.6 15.0 -1.8 25 8.8 NNE 7 9 4 5 1011.2 1009.8 0.0
22/07:00am 18.2 14.0 -3.8 22 9.0 NNE 9 11 5 6 1011.2 1009.8 0.0
22/06:30am 18.3 13.7 -4.4 21 9.2 NE 11 13 6 7 1010.7 1009.3 0.0
22/06:00am 18.0 14.0 -2.3 25 8.6 NE 9 11 5 6 1010.6 1009.1 0.0
22/05:30am 17.8 13.8 -1.9 26 8.4 NE 9 13 5 7 1010.0 1008.6 0.0
22/05:00am 17.3 13.6 0.0 31 7.6 NE 9 13 5 7 1009.9 1008.5 0.0
22/04:30am 17.4 13.5 1.0 33 7.4 ENE 11 13 6 7 1010.0 1008.6 0.0
22/04:00am 16.8 12.5 1.3 35 7.0 ENE 13 17 7 9 1009.8 1008.4 0.0
22/03:30am 16.4 11.7 0.9 35 6.9 NE 15 19 8 10 1009.8 1008.4 0.0
22/03:00am 16.1 11.4 1.0 36 6.7 ENE 15 19 8 10 1009.8 1008.4 0.0
22/02:30am 16.2 11.9 1.1 36 6.7 ENE 13 17 7 9 1010.0 1008.6 0.0
22/02:00am 17.2 12.2 1.2 34 7.2 ESE 17 20 9 11 1010.1 1008.7 0.0
22/01:30am 16.1 11.7 2.5 40 6.3 E 15 19 8 10 1010.1 1008.7 0.0
22/01:00am 16.2 11.8 2.9 41 6.2 ESE 15 19 8 10 1010.3 1008.9 0.0
22/12:30am 16.6 11.3 1.9 37 6.7 SE 19 28 10 15 1010.9 1009.5 0.0
22/12:00am 17.1 12.1 1.1 34 7.2 SE 17 28 9 15 1011.3 1009.9 0.0
 
Date/Time
CDT
Temp
°C
App
Temp
°C
Dew
Point
°C
Rel
Hum
%
Delta-T
°C
Wind Press
QNH
hPa
Press
MSL
hPa
Rain since
9am
mm
Dir  Spd
km/h
Gust
km/h
Spd
kts
Gust
kts
21/11:30pm 17.4 12.7 0.6 32 7.5 SE 15 22 8 12 1011.4 1010.0 0.0
21/11:00pm 17.5 13.1 0.6 32 7.5 SE 13 19 7 10 1011.5 1010.1 0.0
21/10:30pm 18.0 13.3 0.6 31 7.8 SE 15 20 8 11 1011.4 1010.0 0.0
21/10:00pm 18.9 13.9 1.4 31 8.0 SSE 17 22 9 12 1011.4 1010.0 0.0
21/09:30pm 19.4 15.2 1.9 31 8.2 SSE 13 20 7 11 1011.3 1009.9 0.0
21/09:00pm 20.3 16.2 2.2 30 8.5 SE 13 20 7 11 1011.1 1009.7 0.0
21/08:30pm 21.3 17.1 1.6 27 9.3 SE 13 20 7 11 1011.1 1009.7 0.0
21/08:00pm 23.1 18.8 0.9 23 10.4 SSE 13 17 7 9 1010.8 1009.4 0.0
21/07:30pm 24.4 19.3 0.7 21 11.2 SSE 17 26 9 14 1010.8 1009.4 0.0
21/07:00pm 26.2 22.1 4.1 24 11.3 SSE 15 28 8 15 1010.6 1009.1 0.0
21/06:30pm 28.7 25.1 4.9 22 12.5 S 13 20 7 11 1010.3 1008.9 0.0
21/06:00pm 29.7 25.2 2.1 17 13.9 WSW 15 24 8 13 1009.9 1008.5 0.0
21/05:30pm 29.7 24.7 1.2 16 14.1 SW 17 24 9 13 1010.0 1008.6 0.0
21/05:00pm 30.3 25.1 -0.1 14 14.8 SW 17 26 9 14 1010.2 1008.8 0.0
21/04:30pm 30.8 26.1 1.2 15 14.8 SW 15 28 8 15 1010.5 1009.0 0.0
21/04:00pm 31.1 26.0 -1.6 12 15.6 SW 15 26 8 14 1010.9 1009.5 0.0
21/03:30pm 31.4 26.0 -1.4 12 15.7 WSW 17 24 9 13 1011.0 1009.6 0.0
21/03:00pm 30.8 25.2 -3.0 11 15.7 WSW 17 28 9 15 1011.2 1009.8 0.0
21/02:30pm 31.4 26.4 -1.4 12 15.7 W 15 26 8 14 1011.4 1010.0 0.0
21/02:00pm 30.3 25.5 -0.1 14 14.8 W 15 24 8 13 1011.8 1010.4 0.0
21/01:30pm 30.3 25.5 -0.1 14 14.8 WSW 15 26 8 14 1012.3 1010.9 0.0
21/01:00pm 30.4 25.3 0.9 15 14.6 SW 17 24 9 13 1012.5 1011.1 0.0
21/12:30pm 29.7 25.0 -1.6 13 14.8 WNW 13 24 7 13 1012.8 1011.4 0.0
21/12:00pm 29.5 24.9 -0.8 14 14.5 WNW 13 20 7 11 1013.0 1011.7 0.0
21/11:30am 29.1 25.0 -0.1 15 14.1 W 11 24 6 13 1013.2 1011.9 0.0
21/11:00am 28.3 24.5 -0.8 15 13.8 W 9 17 5 9 1013.5 1012.1 0.0
21/10:30am 28.0 23.9 -0.1 16 13.4 NW 11 15 6 8 1013.6 1012.2 0.0
21/10:00am 26.5 23.4 0.3 18 12.5 NNE 6 13 3 7 1013.7 1012.3 0.0
21/09:30am 25.6 22.1 1.0 20 11.8 NE 9 15 5 8 1013.7 1012.3 0.0
21/09:00am 23.4 19.4 0.5 22 10.7 NE 11 19 6 10 1013.8 1012.4 0.0
21/08:30am 21.3 17.4 1.0 26 9.4 NE 11 15 6 8 1014.0 1012.6 0.0
21/08:00am 19.6 16.2 -0.4 26 8.9 NE 7 13 4 7 1014.0 1012.6 0.0
21/07:30am 18.4 14.8 0.5 30 8.0 ENE 9 17 5 9 1014.0 1012.6 0.0
21/07:00am 17.4 13.7 -0.3 30 7.7 ENE 9 13 5 7 1013.9 1012.5 0.0
21/06:30am 17.0 12.3 -1.6 28 7.9 ENE 13 17 7 9 1013.6 1012.2 0.0
21/06:00am 16.5 12.2 -2.0 28 7.8 E 11 15 6 8 1013.7 1012.3 0.0
21/05:30am 16.9 12.2 -1.7 28 7.9 ENE 13 17 7 9 1013.5 1012.1 0.0
21/05:00am 17.5 12.1 -1.7 27 8.2 E 17 20 9 11 1013.5 1012.1 0.0
21/04:30am 16.7 12.1 -1.4 29 7.7 E 13 19 7 10 1013.6 1012.2 0.0
21/04:00am 16.5 11.9 -1.1 30 7.5 E 13 19 7 10 1013.8 1012.4 0.0
21/03:30am 15.7 10.9 -0.1 34 6.8 ENE 15 20 8 11 1013.8 1012.4 0.0
21/03:00am 15.8 10.5 -0.8 32 7.1 ENE 17 20 9 11 1013.8 1012.4 0.0
21/02:30am 16.2 10.8 -1.4 30 7.4 E 17 22 9 12 1014.2 1012.8 0.0
21/02:00am 15.5 10.6 2.0 40 6.1 ESE 17 22 9 12 1014.6 1013.2 0.0
21/01:30am 15.4 10.8 3.5 45 5.5 ESE 17 22 9 12 1015.0 1013.6 0.0
21/01:00am 15.5 10.9 3.9 46 5.5 ESE 17 20 9 11 1015.2 1013.8 0.0
21/12:30am 15.9 11.4 4.0 45 5.6 ESE 17 22 9 12 1015.3 1013.9 0.0
21/12:00am 16.1 11.6 4.2 45 5.7 SE 17 22 9 12 1015.5 1014.2 0.0
 
Date/Time
CDT
Temp
°C
App
Temp
°C
Dew
Point
°C
Rel
Hum
%
Delta-T
°C
Wind Press
QNH
hPa
Press
MSL
hPa
Rain since
9am
mm
Dir  Spd
km/h
Gust
km/h
Spd
kts
Gust
kts
20/11:30pm 16.4 11.5 4.1 44 5.8 SE 19 24 10 13 1015.6 1014.3 0.0
20/11:00pm 16.9 12.4 4.3 43 6.0 SE 17 24 9 13 1016.0 1014.7 0.0
20/10:30pm 17.3 12.7 3.9 41 6.4 SE 17 22 9 12 1016.2 1014.8 0.0
20/10:00pm 18.3 13.3 3.4 37 7.1 SE 19 26 10 14 1016.3 1014.9 0.0
20/09:30pm 19.3 14.7 3.9 36 7.4 SE 17 28 9 15 1016.2 1014.8 0.0
20/09:00pm 20.3 15.7 3.9 34 8.0 SE 17 26 9 14 1016.0 1014.7 0.0
20/08:30pm 21.0 16.5 4.1 33 8.3 SE 17 24 9 13 1016.0 1014.7 0.0
20/08:00pm 22.5 17.7 2.6 27 9.6 SE 17 24 9 13 1016.0 1014.7 0.0
20/07:30pm 23.7 19.4 3.1 26 10.1 SE 15 22 8 12 1015.9 1014.6 0.0
20/07:00pm 24.9 21.5 4.1 26 10.5 SSE 11 20 6 11 1015.8 1014.5 0.0
20/06:30pm 26.0 22.3 4.5 25 11.0 SE 13 20 7 11 1015.9 1014.6 0.0
20/06:00pm 26.5 22.6 5.5 26 11.0 SSE 15 24 8 13 1015.8 1014.5 0.0
20/05:30pm 27.9 24.3 4.9 23 12.0 SSE 13 20 7 11 1015.7 1014.4 0.0
20/05:00pm 28.8 24.3 6.2 24 12.1 WSW 19 30 10 16 1015.7 1014.4 0.0
20/04:30pm 29.6 25.9 6.3 23 12.6 WSW 15 26 8 14 1015.9 1014.6 0.0
20/04:00pm 28.6 24.9 4.2 21 12.6 WSW 13 24 7 13 1016.5 1015.1 0.0
20/03:30pm 29.9 25.5 0.5 15 14.4 E 13 20 7 11 1016.8 1015.4 0.0
20/03:00pm 27.8 24.6 0.5 17 13.2 WSW 7 15 4 8 1017.1 1015.7 0.0
20/02:30pm 28.0 23.4 1.5 18 13.0 SE 15 26 8 14 1017.4 1016.0 0.0
20/02:00pm 27.4 23.9 1.0 18 12.8 ENE 9 20 5 11 1018.0 1016.7 0.0
20/01:30pm 26.0 20.6 1.3 20 11.9 ESE 19 32 10 17 1018.4 1017.1 0.0
20/01:00pm 26.2 22.0 1.5 20 12.0 ENE 13 22 7 12 1018.7 1017.4 0.0
20/12:30pm 26.1 21.4 3.4 23 11.4 ENE 17 26 9 14 1019.1 1017.7 0.0
20/12:00pm 25.7 21.4 3.0 23 11.3 E 15 28 8 15 1019.4 1018.0 0.0
20/11:30am 24.1 19.2 1.7 23 10.7 E 17 26 9 14 1019.7 1018.3 0.0
20/11:00am 24.0 19.5 4.4 28 9.9 ENE 17 24 9 13 1019.8 1018.4 0.0
20/10:30am 22.3 17.7 3.9 30 9.1 ENE 17 26 9 14 1020.0 1018.6 0.0
20/10:00am 20.9 16.2 5.3 36 7.8 NE 19 28 10 15 1020.2 1018.8 0.0
20/09:30am 19.7 14.5 5.7 40 7.0 ENE 22 32 12 17 1020.3 1019.0 0.0
20/09:00am 18.1 12.6 5.7 44 6.1 ENE 24 35 13 19 1020.4 1019.1 0.0
20/08:30am 16.9 11.4 5.8 48 5.5 ENE 24 33 13 18 1020.5 1019.2 0.0
20/08:00am 15.7 10.6 5.9 52 4.8 ENE 22 35 12 19 1020.3 1019.0 0.0
20/07:30am 14.7 9.2 6.0 56 4.2 ENE 24 35 13 19 1020.3 1019.0 0.0
20/07:00am 13.6 8.5 6.0 60 3.7 E 22 28 12 15 1020.1 1018.7 0.0
20/06:30am 13.2 7.7 6.1 62 3.4 E 24 32 13 17 1020.1 1018.7 0.0
20/06:00am 12.7 7.4 6.7 67 2.9 E 24 28 13 15 1019.7 1018.3 0.0
20/05:30am 12.8 7.2 7.3 69 2.7 E 26 32 14 17 1019.5 1018.1 0.0
20/05:00am 12.8 7.7 7.5 70 2.6 E 24 30 13 16 1019.4 1018.0 0.0
20/04:30am 12.7 8.2 8.4 75 2.2 ESE 22 28 12 15 1019.4 1018.0 0.0
20/04:00am 12.5 8.6 9.3 81 1.6 ESE 20 26 11 14 1019.4 1018.0 0.0
20/03:30am 12.8 9.1 10.0 83 1.5 ESE 20 26 11 14 1019.6 1018.2 0.0
20/03:00am 12.9 9.3 10.4 85 1.3 ESE 20 30 11 16 1019.6 1018.2 0.0
20/02:30am 12.8 9.3 10.9 88 1.0 SE 20 30 11 16 1019.8 1018.4 0.0
20/02:00am 12.7 9.3 11.1 90 0.9 SE 20 32 11 17 1019.7 1018.3 0.0
20/01:30am 12.5 9.1 11.2 92 0.7 SE 20 33 11 18 1020.1 1018.7 0.0
20/01:00am 12.4 9.2 11.1 92 0.7 SE 19 28 10 15 1020.3 1019.0 0.0
20/12:30am 12.6 9.8 11.2 91 0.7 SE 17 24 9 13 1020.3 1019.0 0.0
20/12:00am 12.8 9.3 11.0 89 1.0 SE 20 30 11 16 1020.4 1019.1 0.0
 
Date/Time
CDT
Temp
°C
App
Temp
°C
Dew
Point
°C
Rel
Hum
%
Delta-T
°C
Wind Press
QNH
hPa
Press
MSL
hPa
Rain since
9am
mm
Dir  Spd
km/h
Gust
km/h
Spd
kts
Gust
kts
19/11:30pm 12.7 9.2 10.9 89 1.0 SE 20 30 11 16 1020.4 1019.1 0.0
19/11:00pm 12.5 8.2 10.9 90 0.9 SE 24 32 13 17 1020.4 1019.1 0.0
19/10:30pm 12.5 8.9 10.7 89 1.0 ESE 20 30 11 16 1020.7 1019.4 0.0
19/10:00pm 12.6 9.3 10.8 89 1.0 SE 19 30 10 16 1020.8 1019.5 0.0
19/09:30pm 12.8 9.2 10.7 87 1.1 SE 20 35 11 19 1020.5 1019.2 0.0
19/09:00pm 13.2 9.2 10.4 83 1.5 SE 22 33 12 18 1020.3 1019.0 0.0
19/08:30pm 13.8 9.7 10.2 79 1.9 SE 22 32 12 17 1020.2 1018.8 0.0
19/08:00pm 14.8 11.1 10.0 73 2.5 SE 20 33 11 18 1019.9 1018.5 0.0
19/07:30pm 16.0 12.3 10.1 68 3.1 ESE 20 33 11 18 1019.9 1018.5 0.0
19/07:00pm 16.9 12.3 9.8 63 3.8 ESE 24 35 13 19 1019.7 1018.3 0.0
19/06:30pm 17.6 12.7 9.8 60 4.2 ESE 26 39 14 21 1019.8 1018.4 0.0
19/06:00pm 18.5 13.5 9.6 56 4.8 ESE 26 39 14 21 1019.7 1018.3 0.0
19/05:30pm 19.3 14.7 9.8 54 5.1 ESE 24 35 13 19 1019.8 1018.4 0.0
19/05:00pm 19.7 15.0 9.3 51 5.6 SE 24 37 13 20 1019.8 1018.4 0.0
19/04:30pm 20.8 16.6 9.7 49 6.0 ESE 22 35 12 19 1020.0 1018.6 0.0
19/04:00pm 20.3 15.4 8.6 47 6.2 ESE 24 37 13 20 1020.2 1018.8 0.0
19/03:30pm 20.6 16.7 9.5 49 6.0 ESE 20 37 11 20 1020.6 1019.3 0.0
19/03:00pm 20.7 16.8 8.7 46 6.4 ESE 19 30 10 16 1020.9 1019.6 0.0
19/02:30pm 19.7 15.8 9.3 51 5.6 ESE 20 35 11 19 1021.2 1019.9 0.0
19/02:00pm 20.6 16.8 9.8 50 5.9 ESE 20 35 11 19 1021.2 1019.9 0.0
19/01:30pm 19.6 15.7 9.5 52 5.4 SE 20 33 11 18 1021.5 1020.2 0.0
19/01:00pm 19.1 15.1 9.0 52 5.4 ESE 20 39 11 21 1021.7 1020.4 0.0
19/12:30pm 19.0 15.3 10.3 57 4.7 ESE 20 35 11 19 1022.1 1020.7 0.0
19/12:00pm 17.8 14.0 9.9 60 4.2 SE 20 33 11 18 1022.4 1021.0 0.0
19/11:30am 17.0 14.2 11.3 69 3.1 ESE 17 28 9 15 1022.7 1021.4 0.0
19/11:00am 14.3 10.6 10.3 77 2.1 ESE 20 30 11 16 1023.0 1021.7 0.0
19/10:30am 14.0 10.5 11.0 82 1.6 ESE 20 28 11 15 1023.1 1021.8 0.0
19/10:00am 13.8 10.3 11.0 83 1.5 E 20 35 11 19 1023.1 1021.8 0.0
19/09:30am 13.0 9.5 10.9 87 1.1 E 20 35 11 19 1023.0 1021.7 0.0
19/09:00am 12.7 8.1 10.9 89 1.0 ESE 26 37 14 20 1022.8 1021.5 0.0
19/08:30am 12.3 8.5 11.2 93 0.6 ESE 22 35 12 19 1022.6 1021.2 0.0

Other formats

Comma delimited format used in spreadsheet applications
http://www.bom.gov.au/fwo/IDS60801/IDS60801.94683.axf

JavaScript Object Notation format (JSON) in row-major order
http://www.bom.gov.au/fwo/IDS60801/IDS60801.94683.json

Data quality

Most of these data are generated automatically and are frequently updated. Quality checks on data are not normally performed. It is possible for incorrect values to appear. Refer to information at About Latest Weather Observations and please check the disclaimer before using these data.